Time;durP1;ratioP1;P1;durP2;ratioP2;P2;SDS_P1;SDS_P2;PMS_P1;PMS_P2;Temp;Humidity;BMP_temperature;BMP_pressure;BME280_temperature;BME280_humidity;BME280_pressure;Samples;Min_cycle;Max_cycle;Signal;HPM_P1;HPM_P2
2022/09/04 00:02:30;;;;;;;4.50;1.60;;;18.10;62.80;;;;;;4992130;28;20136;-70
2022/09/04 00:05:04;;;;;;;3.63;1.30;;;18.00;63.20;;;;;;4994127;28;20171;-70
2022/09/04 00:07:51;;;;;;;6.90;1.75;;;18.00;63.10;;;;;;4994815;28;20120;-70
2022/09/04 00:10:29;;;;;;;6.63;1.80;;;18.00;63.20;;;;;;4994142;28;20050;-70
2022/09/04 00:13:15;;;;;;;3.37;1.40;;;17.90;63.30;;;;;;4994399;28;20088;-70
2022/09/04 00:15:56;;;;;;;4.70;1.50;;;17.90;63.40;;;;;;4993859;28;20062;-70
2022/09/04 00:18:25;;;;;;;7.23;1.73;;;17.90;63.50;;;;;;4993831;28;20422;-71
2022/09/04 00:21:21;;;;;;;4.43;1.53;;;17.90;63.70;;;;;;4976079;28;20078;-70
2022/09/04 00:24:16;;;;;;;5.70;1.87;;;17.80;63.90;;;;;;4994489;28;20128;-70
2022/09/04 00:26:45;;;;;;;4.97;2.05;;;17.80;63.80;;;;;;4993723;28;20042;-71
2022/09/04 00:29:21;;;;;;;5.67;1.50;;;17.70;64.00;;;;;;4996474;28;20055;-70
2022/09/04 00:32:11;;;;;;;5.93;1.83;;;17.70;63.90;;;;;;4998346;28;20069;-70
2022/09/04 00:35:14;;;;;;;2.80;1.40;;;17.70;64.10;;;;;;4967219;28;20533;-71
2022/09/04 00:37:47;;;;;;;5.73;2.13;;;17.60;64.30;;;;;;4997305;28;20297;-71
2022/09/04 00:40:19;;;;;;;7.50;1.70;;;17.60;64.40;;;;;;4997168;28;20612;-70
2022/09/04 00:43:13;;;;;;;9.37;2.00;;;17.60;64.70;;;;;;4997236;28;20042;-70
2022/09/04 00:45:40;;;;;;;7.93;1.47;;;17.60;64.80;;;;;;4997325;28;20319;-71
2022/09/04 00:48:35;;;;;;;4.87;1.83;;;17.60;64.90;;;;;;4997554;28;20302;-70
2022/09/04 00:51:32;;;;;;;3.10;1.47;;;17.50;65.10;;;;;;4997156;28;20293;-70
2022/09/04 00:54:33;;;;;;;6.47;1.60;;;17.50;65.30;;;;;;4997669;28;20746;-71
2022/09/04 00:57:20;;;;;;;3.67;1.50;;;17.50;65.60;;;;;;4997085;28;20340;-71
2022/09/04 01:00:14;;;;;;;3.93;1.70;;;17.40;65.70;;;;;;4996035;28;20630;-71
2022/09/04 01:03:13;;;;;;;6.57;1.80;;;17.40;65.90;;;;;;4997261;28;20347;-70
2022/09/04 01:05:47;;;;;;;4.53;1.73;;;17.40;66.00;;;;;;4996929;28;20380;-70
2022/09/04 01:08:39;;;;;;;4.55;1.38;;;17.40;66.00;;;;;;4996900;28;20285;-71
2022/09/04 01:11:31;;;;;;;7.67;1.60;;;17.30;66.00;;;;;;4997628;28;20050;-71
2022/09/04 01:14:12;;;;;;;4.70;1.60;;;17.30;66.40;;;;;;4996791;28;20308;-70
2022/09/04 01:17:01;;;;;;;4.13;1.50;;;17.20;66.80;;;;;;4997541;28;20296;-70
2022/09/04 01:19:45;;;;;;;8.47;2.00;;;17.20;67.00;;;;;;4997184;28;20712;-70
2022/09/04 01:22:45;;;;;;;3.70;1.50;;;17.10;67.40;;;;;;4997031;28;20681;-71
2022/09/04 01:25:54;;;;;;;5.73;1.70;;;17.10;67.50;;;;;;4996465;28;20376;-70
2022/09/04 01:28:26;;;;;;;6.93;1.77;;;17.10;68.20;;;;;;4996828;28;20297;-70
2022/09/04 01:31:16;;;;;;;4.40;1.67;;;17.00;67.90;;;;;;4997015;28;20325;-71
2022/09/04 01:33:53;;;;;;;6.93;1.60;;;17.00;68.20;;;;;;4996930;28;20288;-70
2022/09/04 01:36:42;;;;;;;5.87;1.60;;;17.00;68.30;;;;;;4996401;28;20762;-70
2022/09/04 01:39:08;;;;;;;4.70;1.70;;;16.90;68.80;;;;;;4995746;28;20286;-70
2022/09/04 01:41:42;;;;;;;4.80;1.93;;;16.90;68.70;;;;;;4996006;28;20301;-70
2022/09/04 01:44:10;;;;;;;7.60;1.60;;;16.90;69.10;;;;;;4995534;28;20096;-71
2022/09/04 01:46:57;;;;;;;6.23;1.70;;;16.90;69.30;;;;;;4996396;28;20698;-70
2022/09/04 01:49:35;;;;;;;4.10;1.53;;;16.90;69.50;;;;;;4996153;28;20836;-70
2022/09/04 01:52:35;;;;;;;3.90;1.90;;;16.80;69.70;;;;;;4996837;28;20309;-70
2022/09/04 01:55:32;;;;;;;3.37;1.50;;;16.80;70.00;;;;;;4994693;28;20296;-70
2022/09/04 01:58:07;;;;;;;5.57;1.60;;;16.80;70.60;;;;;;4996015;28;20281;-70
2022/09/04 02:00:55;;;;;;;7.50;1.83;;;16.70;70.40;;;;;;4995965;28;20321;-70
2022/09/04 02:03:38;;;;;;;4.83;1.80;;;16.70;70.60;;;;;;4995911;28;20057;-71
2022/09/04 02:06:40;;;;;;;7.77;1.50;;;16.70;71.00;;;;;;4995810;28;20387;-70
2022/09/04 02:09:33;;;;;;;3.63;1.70;;;16.60;71.60;;;;;;4985289;28;20805;-70
2022/09/04 02:12:19;;;;;;;4.70;1.70;;;16.60;71.70;;;;;;4995722;28;20274;-70
2022/09/04 02:14:58;;;;;;;3.80;1.57;;;16.60;72.00;;;;;;4995711;28;20356;-70
2022/09/04 02:18:12;;;;;;;5.50;1.60;;;16.50;72.10;;;;;;4995709;28;20282;-70
2022/09/04 02:20:44;;;;;;;5.73;1.97;;;16.50;73.10;;;;;;4989904;28;20289;-70
2022/09/04 02:23:28;;;;;;;9.30;2.30;;;16.50;72.80;;;;;;4995464;28;20306;-70
2022/09/04 02:26:04;;;;;;;7.07;1.98;;;16.50;73.50;;;;;;4996003;28;20282;-71
2022/09/04 02:28:57;;;;;;;5.13;1.60;;;16.40;73.40;;;;;;4995678;28;20414;-70
2022/09/04 02:31:37;;;;;;;4.87;1.63;;;16.40;73.40;;;;;;4995374;28;20625;-70
2022/09/04 02:34:19;;;;;;;4.83;1.60;;;16.40;73.80;;;;;;4995033;28;20633;-70
2022/09/04 02:36:48;;;;;;;6.87;1.80;;;16.40;73.70;;;;;;4995316;28;20285;-70
2022/09/04 02:39:19;;;;;;;4.10;1.67;;;16.40;74.00;;;;;;4995986;28;20290;-70
2022/09/04 02:42:20;;;;;;;5.53;1.80;;;16.40;74.50;;;;;;4995144;28;20332;-70
2022/09/04 02:44:53;;;;;;;7.27;2.00;;;16.40;74.70;;;;;;4995687;28;20293;-70
2022/09/04 02:47:31;;;;;;;5.70;1.80;;;16.30;75.00;;;;;;4995115;28;20293;-70
2022/09/04 02:50:10;;;;;;;7.60;2.37;;;16.20;75.30;;;;;;4995255;28;20776;-70
2022/09/04 02:53:14;;;;;;;4.53;1.80;;;16.30;75.60;;;;;;4995144;28;20277;-70
2022/09/04 02:56:17;;;;;;;6.60;1.93;;;16.20;76.20;;;;;;4995362;28;20286;-70
2022/09/04 02:59:04;;;;;;;7.60;1.80;;;16.20;75.90;;;;;;4994814;28;20292;-70
2022/09/04 03:01:45;;;;;;;4.30;1.80;;;16.20;76.70;;;;;;4995274;28;20392;-70
2022/09/04 03:04:21;;;;;;;3.83;1.80;;;16.20;76.80;;;;;;4994703;28;20297;-70
2022/09/04 03:06:58;;;;;;;6.47;1.97;;;16.20;76.50;;;;;;4994679;28;20313;-70
2022/09/04 03:09:51;;;;;;;7.60;1.90;;;16.20;76.90;;;;;;4995199;28;20317;-70
2022/09/04 03:12:55;;;;;;;5.53;2.03;;;16.10;77.20;;;;;;4995174;28;20317;-70
2022/09/04 03:15:41;;;;;;;4.87;1.90;;;16.10;77.50;;;;;;4934554;29;20700;-70
2022/09/04 03:18:29;;;;;;;4.87;2.37;;;16.10;77.80;;;;;;4924400;29;20292;-71
2022/09/04 03:21:15;;;;;;;6.23;2.00;;;16.00;78.60;;;;;;4979708;28;20389;-71
2022/09/04 03:24:03;;;;;;;6.17;1.83;;;16.00;78.90;;;;;;4994376;28;20765;-70
2022/09/04 03:26:35;;;;;;;5.90;2.17;;;16.00;78.90;;;;;;4994370;28;20289;-71
2022/09/04 03:29:10;;;;;;;5.03;1.87;;;16.00;78.90;;;;;;4994879;28;20319;-72
2022/09/04 03:32:02;;;;;;;6.90;2.07;;;16.00;78.90;;;;;;4994879;28;20281;-71
2022/09/04 03:34:46;;;;;;;7.27;2.37;;;15.90;79.70;;;;;;4983931;28;20297;-73
2022/09/04 03:37:51;;;;;;;5.70;2.10;;;15.90;80.10;;;;;;4994018;28;20328;-72
2022/09/04 03:40:35;;;;;;;9.63;2.10;;;15.90;80.30;;;;;;4994193;28;20328;-72
2022/09/04 03:43:22;;;;;;;6.53;1.70;;;15.90;80.20;;;;;;4994570;28;20297;-72
2022/09/04 03:46:07;;;;;;;7.33;2.00;;;15.90;80.80;;;;;;4994108;28;20772;-71
2022/09/04 03:48:39;;;;;;;8.07;1.92;;;15.90;81.00;;;;;;4993440;28;20296;-71
2022/09/04 03:51:28;;;;;;;4.60;2.30;;;15.90;81.30;;;;;;4994095;28;20057;-71
2022/09/04 03:54:23;;;;;;;5.10;2.23;;;15.80;81.30;;;;;;4994582;28;20289;-71
2022/09/04 03:57:18;;;;;;;8.17;2.37;;;15.80;81.90;;;;;;4994281;28;20292;-71
2022/09/04 03:59:56;;;;;;;4.57;2.20;;;15.80;82.70;;;;;;4994019;28;20297;-71
2022/09/04 04:02:31;;;;;;;5.50;2.20;;;15.70;82.80;;;;;;4993828;28;20047;-71
2022/09/04 04:05:20;;;;;;;4.17;2.33;;;15.70;82.40;;;;;;4997263;28;20285;-71
2022/09/04 04:07:48;;;;;;;6.20;2.07;;;15.70;82.90;;;;;;4997532;28;20289;-71
2022/09/04 04:10:36;;;;;;;5.50;1.97;;;15.70;83.30;;;;;;4997959;28;20281;-72
2022/09/04 04:13:18;;;;;;;7.50;1.73;;;15.70;84.10;;;;;;4998326;28;20282;-72
2022/09/04 04:16:11;;;;;;;6.60;2.20;;;15.70;84.70;;;;;;4997882;28;20288;-71
2022/09/04 04:18:39;;;;;;;7.30;2.40;;;15.70;84.30;;;;;;4998136;28;20604;-71
2022/09/04 04:21:54;;;;;;;6.07;1.90;;;15.70;84.40;;;;;;4997758;28;20682;-72
2022/09/04 04:24:37;;;;;;;5.13;1.90;;;15.70;84.80;;;;;;4998235;28;20293;-71
2022/09/04 04:27:13;;;;;;;4.87;2.60;;;15.80;84.70;;;;;;4998222;28;20284;-72
2022/09/04 04:30:07;;;;;;;7.97;2.43;;;15.70;84.50;;;;;;4997619;28;20343;-71
2022/09/04 04:32:53;;;;;;;8.77;2.30;;;15.70;85.00;;;;;;4997632;28;20313;-72
2022/09/04 04:35:53;;;;;;;4.60;2.10;;;15.80;84.80;;;;;;4997141;28;20669;-72
2022/09/04 04:38:43;;;;;;;5.70;2.00;;;15.80;85.60;;;;;;4997238;28;20773;-72
2022/09/04 04:41:15;;;;;;;8.53;2.40;;;15.70;85.60;;;;;;4997988;28;20285;-72
2022/09/04 04:43:44;;;;;;;5.60;2.33;;;15.70;85.50;;;;;;4997392;28;20278;-71
2022/09/04 04:46:19;;;;;;;5.50;2.10;;;15.70;85.40;;;;;;4998051;28;20359;-71
2022/09/04 04:48:57;;;;;;;;;;;15.70;86.50;;;;;;4997789;28;20286;-69
2022/09/04 04:51:56;;;;;;;6.77;2.40;;;15.60;87.90;;;;;;4997236;28;19922;-69
2022/09/04 04:54:50;;;;;;;11.50;2.73;;;15.70;87.10;;;;;;4997140;28;20281;-69
2022/09/04 04:57:42;;;;;;;3.73;1.90;;;15.70;86.70;;;;;;4997140;28;20309;-70
2022/09/04 05:00:38;;;;;;;5.10;2.40;;;15.60;87.10;;;;;;4996364;28;20297;-70
2022/09/04 05:03:17;;;;;;;4.87;1.90;;;15.60;87.20;;;;;;4996929;28;20762;-72
2022/09/04 05:05:55;;;;;;;11.70;2.37;;;15.60;87.50;;;;;;4996978;28;20286;-70
2022/09/04 05:08:26;;;;;;;3.73;1.90;;;15.60;88.90;;;;;;4996870;28;20290;-70
2022/09/04 05:11:28;;;;;;;6.03;2.10;;;15.60;88.30;;;;;;4996837;28;20286;-70
2022/09/04 05:14:24;;;;;;;4.73;2.33;;;15.60;88.70;;;;;;4993938;28;20758;-70
2022/09/04 05:16:58;;;;;;;;;;;15.70;89.50;;;;;;4996913;28;20278;-70
2022/09/04 05:19:58;;;;;;;9.03;2.40;;;15.70;89.60;;;;;;4996665;28;20374;-70
2022/09/04 05:22:35;;;;;;;4.23;2.20;;;15.70;88.90;;;;;;4997343;28;20686;-70
2022/09/04 05:25:06;;;;;;;7.60;1.90;;;15.70;89.10;;;;;;4996559;28;20708;-70
2022/09/04 05:27:47;;;;;;;6.97;2.67;;;15.80;88.80;;;;;;4996328;28;20761;-70
2022/09/04 05:30:21;;;;;;;6.73;2.30;;;15.90;88.80;;;;;;4995302;28;20285;-70
2022/09/04 05:33:10;;;;;;;6.30;2.33;;;15.90;88.30;;;;;;4996991;28;20270;-70
2022/09/04 05:36:01;;;;;;;6.13;2.80;;;16.00;88.70;;;;;;4995451;28;20061;-71
2022/09/04 05:38:43;;;;;;;4.90;2.27;;;16.00;88.80;;;;;;4996380;28;20379;-70
2022/09/04 05:41:36;;;;;;;9.80;2.67;;;16.10;88.30;;;;;;4995950;28;20421;-71
2022/09/04 05:44:35;;;;;;;8.47;2.30;;;16.10;88.50;;;;;;4996774;28;20619;-70
2022/09/04 05:47:01;;;;;;;5.63;2.40;;;16.20;88.50;;;;;;4996229;28;20756;-71
2022/09/04 05:49:44;;;;;;;4.33;2.17;;;16.20;87.90;;;;;;4996095;28;20286;-71
2022/09/04 05:52:10;;;;;;;5.87;2.43;;;16.20;88.00;;;;;;4995401;28;20064;-71
2022/09/04 05:55:05;;;;;;;7.27;2.43;;;16.20;87.90;;;;;;4996052;28;20376;-71
2022/09/04 05:57:58;;;;;;;5.45;2.40;;;16.30;88.20;;;;;;4983020;28;20137;-71
2022/09/04 06:00:31;;;;;;;6.30;2.50;;;16.30;88.50;;;;;;4996482;28;20046;-71
2022/09/04 06:03:28;;;;;;;6.57;2.50;;;16.40;88.10;;;;;;4995867;28;20301;-71
2022/09/04 06:06:12;;;;;;;8.63;2.83;;;16.40;88.20;;;;;;4996571;28;20293;-71
2022/09/04 06:08:55;;;;;;;4.70;2.37;;;16.50;87.80;;;;;;4996563;28;20286;-71
2022/09/04 06:11:59;;;;;;;6.30;2.70;;;16.60;87.70;;;;;;4994631;28;20278;-71
2022/09/04 06:14:46;;;;;;;5.37;2.40;;;16.70;87.90;;;;;;4995683;28;20369;-71
2022/09/04 06:17:46;;;;;;;6.27;2.20;;;17.20;86.30;;;;;;4995292;28;20296;-72
2022/09/04 06:20:36;;;;;;;6.20;2.33;;;17.70;83.80;;;;;;4995622;28;20317;-71
2022/09/04 06:23:11;;;;;;;9.13;2.90;;;18.30;80.30;;;;;;4994276;28;20305;-71
2022/09/04 06:25:55;;;;;;;;;;;18.90;79.20;;;;;;4995467;28;20784;-71
2022/09/04 06:28:40;;;;;;;6.97;2.47;;;19.30;74.40;;;;;;4995389;28;20386;-71
2022/09/04 06:31:17;;;;;;;5.30;2.28;;;20.00;75.80;;;;;;4995457;28;20789;-71
2022/09/04 06:34:13;;;;;;;5.37;2.30;;;20.50;72.30;;;;;;4995634;28;20437;-71
2022/09/04 06:37:08;;;;;;;5.13;2.30;;;21.20;67.30;;;;;;4995952;28;20054;-72
2022/09/04 06:40:02;;;;;;;5.27;2.23;;;21.70;63.10;;;;;;4995461;28;20057;-72
2022/09/04 06:42:46;;;;;;;6.20;2.50;;;22.30;61.10;;;;;;4995410;28;20068;-72
2022/09/04 06:45:42;;;;;;;5.37;2.50;;;22.70;58.70;;;;;;4995366;28;20289;-72
2022/09/04 06:48:26;;;;;;;8.47;2.40;;;23.20;55.60;;;;;;4994978;28;20057;-72
2022/09/04 06:51:14;;;;;;;10.10;2.70;;;23.40;55.70;;;;;;4994800;28;20054;-74
2022/09/04 06:54:11;;;;;;;7.43;2.83;;;23.70;52.80;;;;;;4994389;28;20065;-71
2022/09/04 06:56:58;;;;;;;5.47;2.50;;;24.00;53.30;;;;;;4995060;28;20089;-73
2022/09/04 07:00:06;;;;;;;5.97;2.23;;;24.50;51.70;;;;;;4995159;28;20050;-72
2022/09/04 07:02:39;;;;;;;6.70;2.60;;;25.00;49.30;;;;;;4994752;28;20051;-72
2022/09/04 07:05:26;;;;;;;8.53;2.50;;;25.00;50.30;;;;;;4995132;28;20439;-72
2022/09/04 07:08:01;;;;;;;5.67;3.10;;;;;;;;;;4994721;28;20050;-72
2022/09/04 07:10:30;;;;;;;3.87;2.43;;;;;;;;;;4995327;28;20137;-72
2022/09/04 07:13:00;;;;;;;5.83;2.70;;;;;;;;;;4994764;28;20049;-71
2022/09/04 07:15:34;;;;;;;5.87;2.80;;;26.00;48.20;;;;;;4994562;28;20043;-71
2022/09/04 07:18:27;;;;;;;4.72;2.50;;;26.20;48.10;;;;;;4994621;28;20529;-71
2022/09/04 07:21:05;;;;;;;5.07;2.43;;;;;;;;;;4994646;28;20058;-71
2022/09/04 07:23:45;;;;;;;6.50;2.87;;;26.70;45.60;;;;;;4993520;28;20082;-71
2022/09/04 07:26:19;;;;;;;4.97;3.10;;;26.70;45.90;;;;;;4994797;28;20391;-72
2022/09/04 07:29:06;;;;;;;7.47;2.40;;;27.20;46.40;;;;;;4994389;28;20085;-71
2022/09/04 07:31:46;;;;;;;7.20;2.90;;;;;;;;;;4994441;28;20490;-72
2022/09/04 07:34:22;;;;;;;5.40;2.37;;;;;;;;;;4994010;28;20058;-72
2022/09/04 07:37:12;;;;;;;6.20;2.43;;;27.30;82.50;;;;;;4994537;28;20053;-71
2022/09/04 07:40:03;;;;;;;6.33;2.27;;;27.20;44.80;;;;;;4994395;28;20088;-71
2022/09/04 07:42:53;;;;;;;4.60;2.20;;;27.20;44.90;;;;;;4994718;28;20175;-72
2022/09/04 07:45:34;;;;;;;6.17;2.70;;;27.20;45.40;;;;;;4994234;28;20050;-71
2022/09/04 07:48:27;;;;;;;7.73;2.50;;;27.10;45.10;;;;;;4994169;28;20053;-71
2022/09/04 07:51:06;;;;;;;6.97;2.50;;;26.70;45.60;;;;;;4994179;28;20486;-72
2022/09/04 07:54:11;;;;;;;4.17;2.27;;;26.50;68.70;;;;;;4994833;28;20057;-71
2022/09/04 07:56:53;;;;;;;5.05;2.35;;;25.90;47.00;;;;;;4994146;28;20085;-72
2022/09/04 07:59:38;;;;;;;4.47;2.40;;;25.40;47.70;;;;;;4994724;28;20055;-71
2022/09/04 08:02:15;;;;;;;5.95;2.88;;;24.80;48.60;;;;;;4994706;28;20109;-71
2022/09/04 08:05:13;;;;;;;7.67;2.27;;;24.50;49.50;;;;;;4993990;28;20096;-71
2022/09/04 08:07:39;;;;;;;5.80;2.30;;;24.10;49.70;;;;;;4961476;28;20050;-71
2022/09/04 08:11:01;;;;;;;5.97;2.53;;;23.90;50.60;;;;;;4993989;28;20145;-72
2022/09/04 08:14:05;;;;;;;5.30;2.23;;;23.80;51.90;;;;;;4933716;29;20052;-72
2022/09/04 08:17:00;;;;;;;4.77;2.93;;;23.60;52.50;;;;;;4918083;29;20064;-71
2022/09/04 08:19:44;;;;;;;;;;;23.60;52.30;;;;;;4994325;28;20050;-71
2022/09/04 08:22:15;;;;;;;4.53;2.57;;;23.40;53.30;;;;;;4994044;28;19925;-72
2022/09/04 08:24:56;;;;;;;8.30;3.00;;;23.20;52.80;;;;;;4993917;28;20048;-71
2022/09/04 08:27:40;;;;;;;5.37;2.80;;;23.10;53.90;;;;;;4993840;28;20050;-71
2022/09/04 08:30:09;;;;;;;4.10;2.40;;;23.00;54.60;;;;;;4993736;28;20072;-73
2022/09/04 08:33:14;;;;;;;7.13;2.77;;;22.90;54.60;;;;;;4993771;28;20073;-70
2022/09/04 08:36:06;;;;;;;5.55;2.60;;;22.90;55.90;;;;;;4993777;28;20482;-72
2022/09/04 08:39:00;;;;;;;5.40;2.73;;;22.80;56.10;;;;;;4994516;28;20054;-71
2022/09/04 08:42:17;;;;;;;6.97;2.47;;;22.80;56.30;;;;;;4993018;28;20053;-72
2022/09/04 08:45:21;;;;;;;6.40;2.60;;;22.80;57.00;;;;;;4960942;28;20069;-73
2022/09/04 08:47:56;;;;;;;6.90;2.37;;;22.80;57.10;;;;;;4992719;28;20058;-72
2022/09/04 08:50:33;;;;;;;6.80;2.70;;;22.80;57.00;;;;;;4995715;28;20133;-73
2022/09/04 08:53:25;;;;;;;5.03;2.60;;;22.80;57.70;;;;;;4997161;28;20054;-72
2022/09/04 08:56:25;;;;;;;7.67;2.83;;;22.80;57.50;;;;;;4992474;28;20051;-72
2022/09/04 08:59:23;;;;;;;5.37;2.50;;;22.90;58.60;;;;;;4997158;28;20089;-73
2022/09/04 09:02:09;;;;;;;4.93;2.30;;;22.90;58.60;;;;;;4997342;28;20050;-71
2022/09/04 09:04:49;;;;;;;8.30;2.60;;;23.00;58.80;;;;;;4995962;28;20046;-72
2022/09/04 09:07:30;;;;;;;4.80;2.47;;;23.00;58.60;;;;;;4997035;28;20056;-72
2022/09/04 09:10:28;;;;;;;6.83;2.70;;;23.20;58.70;;;;;;4996949;28;20050;-70
2022/09/04 09:13:13;;;;;;;4.53;2.37;;;23.20;59.10;;;;;;4996867;28;20046;-71
2022/09/04 09:15:53;;;;;;;6.25;2.35;;;23.30;58.70;;;;;;4996810;28;20050;-72
2022/09/04 09:18:56;;;;;;;9.53;2.47;;;23.30;58.90;;;;;;4997564;28;20364;-70
2022/09/04 09:21:59;;;;;;;6.93;2.33;;;23.30;59.00;;;;;;4968483;28;20094;-73
2022/09/04 09:24:43;;;;;;;8.40;2.30;;;23.30;59.10;;;;;;4996850;28;20054;-72
2022/09/04 09:27:21;;;;;;;5.35;2.45;;;23.30;59.00;;;;;;4996622;28;20055;-73
2022/09/04 09:30:18;;;;;;;3.83;2.23;;;23.50;59.30;;;;;;4997189;28;20073;-72
2022/09/04 09:33:22;;;;;;;5.57;2.43;;;23.50;59.40;;;;;;4997253;28;20117;-72
2022/09/04 09:36:06;;;;;;;6.80;2.43;;;23.50;59.10;;;;;;4996394;28;20053;-73
2022/09/04 09:38:49;;;;;;;5.53;2.60;;;23.50;58.90;;;;;;4995716;28;20047;-72
2022/09/04 09:41:30;;;;;;;7.20;2.40;;;23.50;59.20;;;;;;4996235;28;20471;-72
2022/09/04 09:44:41;;;;;;;9.23;2.40;;;23.60;59.50;;;;;;4996794;28;20394;-72
2022/09/04 09:47:43;;;;;;;3.90;2.00;;;23.60;59.10;;;;;;4996470;28;20479;-72
2022/09/04 09:50:48;;;;;;;6.60;2.10;;;23.70;59.00;;;;;;4996181;28;20054;-73
2022/09/04 09:53:20;;;;;;;5.93;2.37;;;23.70;59.00;;;;;;4995924;28;20483;-75
2022/09/04 09:55:49;;;;;;;6.60;2.43;;;23.80;59.20;;;;;;4995344;28;20557;-72
2022/09/04 09:58:29;;;;;;;4.87;2.30;;;23.80;58.90;;;;;;4996284;28;20414;-71
2022/09/04 10:01:18;;;;;;;5.20;2.23;;;23.80;59.00;;;;;;4994969;28;20054;-72
2022/09/04 10:03:54;;;;;;;5.50;2.20;;;23.80;58.60;;;;;;4995977;28;20505;-73
2022/09/04 10:06:51;;;;;;;6.50;1.67;;;23.80;58.70;;;;;;4995951;28;20046;-79
2022/09/04 10:09:51;;;;;;;6.63;2.07;;;23.80;59.10;;;;;;4996220;28;20046;-72
2022/09/04 10:12:31;;;;;;;5.53;2.17;;;23.90;59.10;;;;;;4996013;28;20125;-72
2022/09/04 10:15:18;;;;;;;9.80;2.20;;;23.90;59.00;;;;;;4996004;28;20410;-72
2022/09/04 10:18:01;;;;;;;4.90;2.30;;;24.10;59.00;;;;;;4996224;28;20081;-72
2022/09/04 10:20:46;;;;;;;4.33;2.23;;;24.10;58.80;;;;;;4995417;28;20058;-72
2022/09/04 10:23:37;;;;;;;5.30;2.40;;;24.20;58.40;;;;;;4996085;28;20129;-72
2022/09/04 10:26:15;;;;;;;4.97;2.23;;;24.10;58.30;;;;;;4995560;28;20062;-72
2022/09/04 10:28:52;;;;;;;5.13;1.93;;;24.20;58.60;;;;;;4995239;28;20046;-73
2022/09/04 10:31:27;;;;;;;7.30;2.00;;;24.20;58.40;;;;;;4994259;28;20549;-71
2022/09/04 10:34:10;;;;;;;3.70;1.97;;;24.20;58.20;;;;;;4995375;28;20050;-72
2022/09/04 10:36:43;;;;;;;4.30;2.17;;;24.30;58.10;;;;;;4995766;28;20050;-73
2022/09/04 10:42:41;;;;;;;5.67;2.00;;;24.40;61.40;;;;;;4974543;28;20137;-71
2022/09/04 10:45:23;;;;;;;4.50;1.97;;;24.50;58.10;;;;;;4995124;28;20047;-72
2022/09/04 10:48:12;;;;;;;5.07;2.17;;;24.50;57.60;;;;;;4994760;28;20077;-70
2022/09/04 10:50:56;;;;;;;6.87;2.03;;;24.50;57.60;;;;;;4994620;28;20086;-71
2022/09/04 10:53:51;;;;;;;6.05;2.17;;;24.50;57.50;;;;;;4994612;28;20141;-71
2022/09/04 10:56:27;;;;;;;4.25;1.65;;;24.50;57.50;;;;;;4995050;28;20085;-72
2022/09/04 10:59:24;;;;;;;5.27;2.00;;;24.60;58.20;;;;;;4994996;28;20053;-72
2022/09/04 11:01:55;;;;;;;4.80;2.10;;;24.60;57.40;;;;;;4995352;28;20049;-73
2022/09/04 11:04:33;;;;;;;4.43;1.83;;;24.70;57.50;;;;;;4993902;28;20121;-73
2022/09/04 11:07:17;;;;;;;5.33;1.97;;;24.70;57.90;;;;;;4995676;28;20112;-75
2022/09/04 11:10:03;;;;;;;5.60;2.50;;;;;;;;;;4994823;28;20093;-75
2022/09/04 11:12:41;;;;;;;6.40;2.10;;;24.80;57.30;;;;;;4994990;28;20053;-74
2022/09/04 11:15:07;;;;;;;5.43;2.07;;;;;;;;;;4994730;28;20042;-75
2022/09/04 11:17:55;;;;;;;5.03;2.50;;;24.90;57.30;;;;;;4994591;28;20491;-77
2022/09/04 11:20:39;;;;;;;5.00;2.10;;;25.00;57.60;;;;;;4994448;28;20069;-74
2022/09/04 11:23:59;;;;;;;11.13;2.20;;;25.00;56.90;;;;;;4993664;28;20054;-78
2022/09/04 11:26:53;;;;;;;4.17;1.73;;;25.00;56.70;;;;;;4934289;29;20055;-74
2022/09/04 11:29:45;;;;;;;6.07;2.63;;;25.00;57.30;;;;;;4993869;28;20046;-74
2022/09/04 11:32:55;;;;;;;3.70;1.80;;;25.10;57.20;;;;;;4995220;28;20042;-73
2022/09/04 11:35:39;;;;;;;7.50;2.17;;;25.10;57.50;;;;;;4966490;28;20058;-73
2022/09/04 11:38:18;;;;;;;6.90;3.22;;;25.20;57.20;;;;;;4993347;28;20053;-73
2022/09/04 11:41:06;;;;;;;4.90;2.00;;;25.20;57.20;;;;;;4994310;28;20399;-74
2022/09/04 11:44:23;;;;;;;5.63;1.90;;;25.20;57.40;;;;;;4994143;28;20057;-74
2022/09/04 11:47:16;;;;;;;6.37;2.33;;;25.30;57.20;;;;;;4961362;28;20060;-73
2022/09/04 11:50:13;;;;;;;8.07;2.10;;;25.20;57.30;;;;;;4993964;28;20487;-73
2022/09/04 11:53:11;;;;;;;3.17;1.70;;;25.30;57.30;;;;;;4994167;28;20101;-73
2022/09/04 11:55:50;;;;;;;4.90;1.80;;;25.30;57.40;;;;;;4994086;28;20046;-73
2022/09/04 11:58:28;;;;;;;7.47;2.00;;;25.40;57.70;;;;;;4994139;28;20054;-73
2022/09/04 12:01:32;;;;;;;4.67;2.17;;;25.40;57.40;;;;;;4994055;28;20042;-73
2022/09/04 12:04:24;;;;;;;3.93;2.10;;;25.40;57.80;;;;;;4993916;28;20046;-73
2022/09/04 12:07:16;;;;;;;3.43;2.00;;;25.50;57.20;;;;;;4966339;28;20065;-73
2022/09/04 12:10:02;;;;;;;4.97;2.00;;;25.60;57.10;;;;;;4994210;28;20054;-73
2022/09/04 12:12:40;;;;;;;5.87;1.90;;;25.60;57.10;;;;;;4993943;28;20046;-73
2022/09/04 12:15:45;;;;;;;4.37;1.93;;;25.60;56.80;;;;;;4993709;28;20510;-73
2022/09/04 12:18:22;;;;;;;5.43;1.70;;;25.70;56.90;;;;;;4994288;28;20085;-73
2022/09/04 12:21:36;;;;;;;5.93;2.00;;;25.70;56.40;;;;;;4993988;28;20093;-73
2022/09/04 12:24:22;;;;;;;4.37;2.10;;;25.80;56.80;;;;;;4993232;28;20490;-73
2022/09/04 12:27:12;;;;;;;5.30;2.30;;;25.80;56.90;;;;;;4998304;28;20132;-73
2022/09/04 12:30:05;;;;;;;5.90;1.80;;;25.80;56.60;;;;;;4997729;28;20110;-73
2022/09/04 12:33:08;;;;;;;3.67;2.00;;;25.70;56.20;;;;;;4998190;28;20050;-73
2022/09/04 12:35:59;;;;;;;5.97;1.93;;;25.70;56.90;;;;;;4997643;28;20084;-73
2022/09/04 12:39:04;;;;;;;6.53;1.83;;;25.70;57.10;;;;;;4997515;28;20120;-73
2022/09/04 12:41:57;;;;;;;2.67;1.50;;;25.70;57.30;;;;;;4986631;28;20057;-73
2022/09/04 12:44:25;;;;;;;5.03;1.80;;;25.70;56.80;;;;;;4997468;28;20533;-73
2022/09/04 12:47:23;;;;;;;6.57;1.97;;;25.70;57.00;;;;;;4996889;28;20475;-73
2022/09/04 12:49:58;;;;;;;5.47;2.20;;;25.70;56.90;;;;;;4976932;28;20419;-71
2022/09/04 12:52:45;;;;;;;3.70;1.70;;;25.70;57.10;;;;;;4997768;28;20051;-73
2022/09/04 12:55:37;;;;;;;4.50;1.80;;;25.80;57.00;;;;;;4997844;28;20050;-74
2022/09/04 12:58:43;;;;;;;5.70;2.07;;;25.80;56.80;;;;;;4997163;28;20054;-71
2022/09/04 13:01:22;;;;;;;3.80;1.77;;;25.80;57.00;;;;;;4997138;28;20042;-71
2022/09/04 13:04:12;;;;;;;4.67;1.93;;;25.80;56.80;;;;;;4997027;28;20513;-71
2022/09/04 13:07:15;;;;;;;5.33;1.87;;;25.80;56.60;;;;;;4997606;28;20046;-73
2022/09/04 13:10:02;;;;;;;5.17;2.30;;;25.80;57.40;;;;;;4997513;28;20054;-73
2022/09/04 13:12:33;;;;;;;6.17;2.03;;;25.80;57.80;;;;;;4997780;28;20081;-73
2022/09/04 13:15:32;;;;;;;5.43;2.13;;;25.80;57.70;;;;;;4996882;28;20136;-73
2022/09/04 13:18:33;;;;;;;4.10;1.87;;;25.80;57.10;;;;;;4973122;28;20065;-73
2022/09/04 13:21:04;;;;;;;3.73;1.80;;;25.70;57.00;;;;;;4963556;28;20557;-73
2022/09/04 13:23:36;;;;;;;4.10;1.90;;;25.70;57.00;;;;;;4997564;28;20090;-73
2022/09/04 13:26:23;;;;;;;6.80;1.97;;;25.70;57.30;;;;;;4996610;28;20132;-74
2022/09/04 13:29:19;;;;;;;4.87;2.10;;;25.70;57.40;;;;;;4996438;28;20497;-73
2022/09/04 13:32:09;;;;;;;3.93;1.90;;;25.70;57.40;;;;;;4997129;28;20085;-73
2022/09/04 13:35:13;;;;;;;4.03;2.33;;;25.70;57.40;;;;;;4996350;28;20050;-73
2022/09/04 13:37:51;;;;;;;4.90;2.00;;;25.70;57.20;;;;;;4996456;28;20111;-73
2022/09/04 13:40:45;;;;;;;3.53;1.90;;;25.80;57.20;;;;;;4995446;28;20056;-73
2022/09/04 13:43:29;;;;;;;5.57;2.13;;;25.90;57.20;;;;;;4995919;28;20352;-73
2022/09/04 13:46:04;;;;;;;5.18;2.15;;;25.90;57.00;;;;;;4996950;28;20061;-73
2022/09/04 13:48:44;;;;;;;4.18;2.35;;;25.90;56.80;;;;;;4996374;28;20190;-73
2022/09/04 13:51:17;;;;;;;7.57;1.87;;;25.90;57.10;;;;;;4996219;28;20053;-74
2022/09/04 13:54:12;;;;;;;3.23;1.90;;;26.00;57.30;;;;;;4996439;28;20466;-73
2022/09/04 13:57:25;;;;;;;3.57;1.80;;;26.00;57.00;;;;;;4996415;28;20056;-74
2022/09/04 13:59:54;;;;;;;4.97;2.13;;;26.00;56.30;;;;;;4995681;28;20050;-71
2022/09/04 14:02:24;;;;;;;8.33;2.23;;;26.00;56.60;;;;;;4995288;28;20387;-71
2022/09/04 14:05:12;;;;;;;3.43;2.00;;;26.00;56.50;;;;;;4995930;28;20050;-71
2022/09/04 14:07:40;;;;;;;5.27;2.17;;;26.00;56.10;;;;;;4996197;28;20104;-72
2022/09/04 14:10:17;;;;;;;8.50;2.90;;;26.00;56.70;;;;;;4995829;28;20338;-72
2022/09/04 14:12:49;;;;;;;8.50;1.93;;;26.10;56.70;;;;;;4996106;28;20042;-72
2022/09/04 14:15:43;;;;;;;3.77;2.17;;;26.00;56.00;;;;;;4995723;28;20050;-72
2022/09/04 14:18:23;;;;;;;5.40;1.90;;;26.00;56.60;;;;;;4996278;28;20054;-72
2022/09/04 14:20:56;;;;;;;3.73;1.90;;;26.00;56.80;;;;;;4995722;28;20156;-72
2022/09/04 14:23:31;;;;;;;4.07;2.10;;;26.00;56.60;;;;;;4996064;28;20062;-72
2022/09/04 14:26:25;;;;;;;4.73;2.03;;;26.00;56.80;;;;;;4995823;28;20057;-72
2022/09/04 14:29:04;;;;;;;4.60;1.87;;;26.00;55.80;;;;;;4995581;28;20042;-72
2022/09/04 14:31:51;;;;;;;3.97;2.20;;;26.00;56.20;;;;;;4996065;28;20466;-72
2022/09/04 14:34:32;;;;;;;4.30;1.70;;;26.10;55.90;;;;;;4995322;28;20148;-72